createdAt,value
2018-12-30T00:00:02.896Z,4.12
2018-12-30T00:02:33.389Z,4.12
2018-12-30T00:05:04.754Z,4.12
2018-12-30T00:07:35.477Z,4.14
2018-12-30T00:10:06.417Z,4.15
2018-12-30T00:12:36.927Z,4.19
2018-12-30T00:15:09.752Z,4.18
2018-12-30T00:17:40.312Z,4.22
2018-12-30T00:20:11.625Z,4.24
2018-12-30T00:22:42.184Z,4.26
2018-12-30T00:25:15.488Z,4.24
2018-12-30T00:27:46.271Z,4.26
2018-12-30T00:30:16.807Z,4.26
2018-12-30T00:32:47.455Z,4.28
2018-12-30T00:35:19.164Z,4.26
2018-12-30T00:37:50.608Z,4.29
2018-12-30T00:40:21.881Z,4.32
2018-12-30T00:42:52.381Z,4.31
2018-12-30T00:45:23.063Z,4.32
2018-12-30T00:47:53.638Z,4.32
2018-12-30T00:50:24.159Z,4.32
2018-12-30T00:52:55.257Z,4.33
2018-12-30T00:55:25.819Z,4.35
2018-12-30T00:57:56.369Z,4.33
2018-12-30T01:00:26.928Z,4.39
2018-12-30T01:02:57.482Z,4.41
2018-12-30T01:05:28.297Z,4.45
2018-12-30T01:07:58.824Z,4.44
2018-12-30T01:10:29.562Z,4.47
2018-12-30T01:13:00.145Z,4.45
2018-12-30T01:15:31.423Z,4.43
2018-12-30T01:18:02.202Z,4.44
2018-12-30T01:20:32.695Z,4.48
2018-12-30T01:23:03.252Z,4.47
2018-12-30T01:25:33.782Z,4.50
2018-12-30T01:28:04.350Z,4.51
2018-12-30T01:30:34.874Z,4.59
2018-12-30T01:33:05.431Z,4.58
2018-12-30T01:35:35.969Z,4.60
2018-12-30T01:38:06.509Z,4.60
2018-12-30T01:40:41.928Z,4.63
2018-12-30T01:43:15.718Z,4.61
2018-12-30T01:45:46.275Z,4.61
2018-12-30T01:48:16.815Z,4.65
2018-12-30T01:50:47.341Z,4.66
2018-12-30T01:53:18.943Z,4.64
2018-12-30T01:55:50.293Z,4.63
2018-12-30T01:58:20.826Z,4.63
2018-12-30T02:00:51.383Z,4.62
2018-12-30T02:03:22.282Z,4.63
2018-12-30T02:05:52.834Z,4.60
2018-12-30T02:08:23.426Z,4.60
2018-12-30T02:10:54.022Z,4.63
2018-12-30T02:13:24.624Z,4.63
2018-12-30T02:15:55.215Z,4.63
2018-12-30T02:18:25.801Z,4.63
2018-12-30T02:20:58.323Z,4.62
2018-12-30T02:23:29.475Z,4.66
2018-12-30T02:26:00.007Z,4.64
2018-12-30T02:28:30.547Z,4.65
2018-12-30T02:31:03.081Z,4.64
2018-12-30T02:33:33.360Z,4.68
2018-12-30T02:36:04.661Z,4.69
2018-12-30T02:38:35.902Z,4.77
2018-12-30T02:41:08.993Z,4.78
2018-12-30T02:43:40.583Z,4.86
2018-12-30T02:46:11.019Z,4.93
2018-12-30T02:48:41.616Z,5.01
2018-12-30T02:51:12.145Z,5.07
2018-12-30T02:53:44.044Z,5.08
2018-12-30T02:56:14.603Z,5.09
2018-12-30T02:58:45.767Z,5.08
2018-12-30T03:01:16.314Z,5.11
2018-12-30T03:03:48.230Z,5.09
2018-12-30T03:06:18.917Z,5.08
2018-12-30T03:08:49.459Z,5.06
2018-12-30T03:11:19.963Z,5.03
2018-12-30T03:13:50.533Z,5.02
2018-12-30T03:16:21.074Z,5.03
2018-12-30T03:18:53.149Z,5.06
2018-12-30T03:21:23.751Z,5.08
2018-12-30T03:23:54.943Z,5.10
2018-12-30T03:26:26.496Z,5.12
2018-12-30T03:28:58.056Z,5.10
2018-12-30T03:31:28.603Z,5.11
2018-12-30T03:34:02.621Z,5.15
2018-12-30T03:36:33.137Z,5.17
2018-12-30T03:39:04.208Z,5.17
2018-12-30T03:41:34.759Z,5.17
2018-12-30T03:44:05.461Z,5.22
2018-12-30T03:46:35.976Z,5.24
2018-12-30T03:49:06.525Z,5.25
2018-12-30T03:51:37.106Z,5.33
2018-12-30T03:54:07.625Z,5.29
2018-12-30T03:56:38.173Z,5.28
2018-12-30T03:59:08.677Z,5.29
2018-12-30T04:01:41.534Z,5.31
2018-12-30T04:04:14.160Z,5.32
2018-12-30T04:06:44.724Z,5.30
2018-12-30T04:09:15.271Z,5.31
2018-12-30T04:11:45.829Z,5.36
2018-12-30T04:14:16.325Z,5.37
2018-12-30T04:16:46.851Z,5.37
2018-12-30T04:19:17.405Z,5.41
2018-12-30T04:21:47.877Z,5.38
2018-12-30T04:24:18.352Z,5.38
2018-12-30T04:26:48.882Z,5.39
2018-12-30T04:29:19.416Z,5.38
2018-12-30T04:31:49.968Z,5.40
2018-12-30T04:34:20.526Z,5.43
2018-12-30T04:36:51.047Z,5.47
2018-12-30T04:39:21.597Z,5.50
2018-12-30T04:41:52.129Z,5.49
2018-12-30T04:44:22.674Z,5.49
2018-12-30T04:46:53.236Z,5.47
2018-12-30T04:49:23.785Z,5.47
2018-12-30T04:51:54.325Z,5.45
2018-12-30T04:54:25.083Z,5.43
2018-12-30T04:56:55.584Z,5.44
2018-12-30T04:59:26.044Z,5.49
2018-12-30T05:01:57.240Z,5.45
2018-12-30T05:04:28.395Z,5.43
2018-12-30T05:06:59.000Z,5.45
2018-12-30T05:09:29.536Z,5.43
2018-12-30T05:12:01.301Z,5.44
2018-12-30T05:14:31.902Z,5.45
2018-12-30T05:17:02.428Z,5.44
2018-12-30T05:19:33.062Z,5.40
2018-12-30T05:22:03.554Z,5.44
2018-12-30T05:24:34.065Z,5.43
2018-12-30T05:27:04.624Z,5.42
2018-12-30T05:29:35.177Z,5.41
2018-12-30T05:32:05.726Z,5.36
2018-12-30T05:34:36.233Z,5.33
2018-12-30T05:37:07.123Z,5.34
2018-12-30T05:39:37.624Z,5.35
2018-12-30T05:42:08.217Z,5.32
2018-12-30T05:44:39.372Z,5.24
2018-12-30T05:47:13.448Z,5.27
2018-12-30T05:49:43.987Z,5.28
2018-12-30T05:52:14.477Z,5.27
2018-12-30T05:54:45.105Z,5.26
2018-12-30T05:57:20.013Z,5.28
2018-12-30T05:59:50.526Z,5.23
2018-12-30T06:02:21.073Z,5.22
2018-12-30T06:04:51.599Z,5.20
2018-12-30T06:07:22.188Z,5.22
2018-12-30T06:09:52.804Z,5.20
2018-12-30T06:12:24.426Z,5.19
2018-12-30T06:14:54.991Z,5.18
2018-12-30T06:17:25.510Z,5.15
2018-12-30T06:19:56.072Z,5.16
2018-12-30T06:22:26.555Z,5.16
2018-12-30T06:24:57.077Z,5.21
2018-12-30T06:27:27.714Z,5.17
2018-12-30T06:29:58.257Z,5.16
2018-12-30T06:32:28.837Z,5.15
2018-12-30T06:34:59.396Z,5.18
2018-12-30T06:37:29.935Z,5.15
2018-12-30T06:40:00.515Z,5.12
2018-12-30T06:42:31.025Z,5.14
2018-12-30T06:45:01.566Z,5.14
2018-12-30T06:47:32.080Z,5.12
2018-12-30T06:50:02.728Z,5.11
2018-12-30T06:52:33.240Z,5.12
2018-12-30T06:55:03.828Z,5.08
2018-12-30T06:57:34.328Z,5.04
2018-12-30T07:00:05.262Z,5.04
2018-12-30T07:02:35.808Z,5.07
2018-12-30T07:05:06.461Z,5.06
2018-12-30T07:07:36.979Z,5.07
2018-12-30T07:10:07.585Z,5.09
2018-12-30T07:12:38.093Z,5.06
2018-12-30T07:15:08.688Z,5.05
2018-12-30T07:17:39.210Z,5.04
2018-12-30T07:20:09.871Z,5.03
2018-12-30T07:22:40.434Z,5.04
2018-12-30T07:25:10.965Z,5.02
2018-12-30T07:27:41.537Z,4.99
2018-12-30T07:30:12.074Z,5.00
2018-12-30T07:32:42.609Z,4.98
2018-12-30T07:35:13.195Z,4.98
2018-12-30T07:37:43.691Z,4.98
2018-12-30T07:40:14.265Z,4.97
2018-12-30T07:42:44.808Z,4.96
2018-12-30T07:45:15.329Z,4.95
2018-12-30T07:47:45.905Z,4.94
2018-12-30T07:50:16.494Z,4.94
2018-12-30T07:52:47.075Z,4.96
2018-12-30T07:55:21.923Z,4.94
2018-12-30T07:57:56.917Z,4.92
2018-12-30T08:00:29.967Z,4.95
2018-12-30T08:03:00.518Z,4.97
2018-12-30T08:05:32.044Z,4.96
2018-12-30T08:08:02.465Z,4.93
2018-12-30T08:10:33.055Z,4.92
2018-12-30T08:13:03.574Z,4.95
2018-12-30T08:15:34.275Z,4.98
2018-12-30T08:18:04.781Z,4.98
2018-12-30T08:20:35.316Z,4.97
2018-12-30T08:23:05.881Z,4.99
2018-12-30T08:25:36.437Z,4.97
2018-12-30T08:28:07.062Z,5.00
2018-12-30T08:30:37.738Z,5.02
2018-12-30T08:33:08.396Z,5.02
2018-12-30T08:35:42.104Z,5.02
2018-12-30T08:38:14.340Z,5.05
2018-12-30T08:40:45.244Z,5.05
2018-12-30T08:43:17.248Z,5.07
2018-12-30T08:45:49.726Z,5.06
2018-12-30T08:48:20.242Z,5.07
2018-12-30T08:50:50.755Z,5.08
2018-12-30T08:53:29.172Z,5.07
2018-12-30T08:55:53.766Z,5.11
2018-12-30T08:58:24.375Z,5.11
2018-12-30T09:00:54.920Z,5.12
2018-12-30T09:03:25.462Z,5.12
2018-12-30T09:05:56.056Z,5.15
2018-12-30T09:08:28.068Z,5.16
2018-12-30T09:10:58.604Z,5.16
2018-12-30T09:13:29.204Z,5.19
2018-12-30T09:15:59.749Z,5.23
2018-12-30T09:18:30.328Z,5.23
2018-12-30T09:21:00.842Z,5.27
2018-12-30T09:23:37.228Z,5.29
2018-12-30T09:26:03.682Z,5.28
2018-12-30T09:28:34.171Z,5.31
2018-12-30T09:31:04.795Z,5.31
2018-12-30T09:33:35.279Z,5.34
2018-12-30T09:36:07.346Z,5.34
2018-12-30T09:38:37.875Z,5.37
2018-12-30T09:41:08.438Z,5.39
2018-12-30T09:43:38.979Z,5.42
2018-12-30T09:46:09.560Z,5.46
2018-12-30T09:48:40.142Z,5.54
2018-12-30T09:51:10.726Z,5.59
2018-12-30T09:53:45.092Z,5.67
2018-12-30T09:56:13.782Z,5.72
2018-12-30T09:58:44.639Z,5.77
2018-12-30T10:01:15.196Z,5.77
2018-12-30T10:03:45.703Z,5.83
2018-12-30T10:06:16.244Z,5.85
2018-12-30T10:08:46.800Z,5.87
2018-12-30T10:11:17.364Z,5.91
2018-12-30T10:13:48.394Z,5.91
2018-12-30T10:16:22.956Z,5.95
2018-12-30T10:18:54.361Z,5.98
2018-12-30T10:21:26.365Z,6.03
2018-12-30T10:23:57.128Z,6.08
2018-12-30T10:26:27.707Z,6.14
2018-12-30T10:28:58.212Z,6.19
2018-12-30T10:31:28.803Z,6.23
2018-12-30T10:33:59.367Z,6.23
2018-12-30T10:36:29.899Z,6.27
2018-12-30T10:39:00.444Z,6.32
2018-12-30T10:41:30.956Z,6.35
2018-12-30T10:44:01.538Z,6.40
2018-12-30T10:46:33.752Z,6.44
2018-12-30T10:49:04.301Z,6.47
2018-12-30T10:51:34.884Z,6.50
2018-12-30T10:54:05.376Z,6.55
2018-12-30T10:56:35.937Z,6.59
2018-12-30T10:59:06.511Z,6.59
2018-12-30T11:01:39.441Z,6.59
2018-12-30T11:04:09.940Z,6.66
2018-12-30T11:06:40.495Z,6.69
2018-12-30T11:09:11.016Z,6.68
2018-12-30T11:11:41.559Z,6.74
2018-12-30T11:14:12.101Z,6.79
2018-12-30T11:16:42.623Z,6.75
2018-12-30T11:19:13.187Z,6.75
2018-12-30T11:21:43.768Z,6.79
2018-12-30T11:24:14.342Z,6.82
2018-12-30T11:26:44.922Z,6.84
2018-12-30T11:29:15.409Z,6.83
2018-12-30T11:31:45.986Z,6.84
2018-12-30T11:34:16.529Z,6.88
2018-12-30T11:36:47.125Z,6.89
2018-12-30T11:39:18.142Z,6.91
2018-12-30T11:41:48.685Z,6.91
2018-12-30T11:44:19.213Z,6.92
2018-12-30T11:46:49.821Z,6.93
2018-12-30T11:49:22.049Z,6.96
2018-12-30T11:51:52.605Z,6.97
2018-12-30T11:54:23.139Z,6.95
2018-12-30T11:56:53.670Z,6.95
2018-12-30T11:59:24.198Z,7.03
2018-12-30T12:01:54.708Z,7.04
2018-12-30T12:04:25.281Z,7.00
2018-12-30T12:06:55.814Z,6.97
2018-12-30T12:09:26.366Z,7.01
2018-12-30T12:11:56.894Z,7.01
2018-12-30T12:14:27.471Z,7.04
2018-12-30T12:16:58.003Z,7.05
2018-12-30T12:19:28.536Z,7.09
2018-12-30T12:21:59.131Z,7.05
2018-12-30T12:24:29.681Z,7.02
2018-12-30T12:27:00.221Z,6.99
2018-12-30T12:29:30.755Z,6.93
2018-12-30T12:32:01.321Z,6.94
2018-12-30T12:34:31.885Z,6.96
2018-12-30T12:37:02.429Z,6.92
2018-12-30T12:39:32.963Z,6.87
2018-12-30T12:42:03.506Z,6.86
2018-12-30T12:44:34.066Z,6.88
2018-12-30T12:47:04.601Z,6.88
2018-12-30T12:49:35.125Z,6.86
2018-12-30T12:52:05.661Z,6.82
2018-12-30T12:54:36.153Z,6.82
2018-12-30T12:57:06.717Z,6.83
2018-12-30T12:59:37.306Z,6.85
2018-12-30T13:02:07.852Z,6.83
2018-12-30T13:04:38.372Z,6.87
2018-12-30T13:07:08.942Z,6.80
2018-12-30T13:09:39.482Z,6.81
2018-12-30T13:12:10.058Z,6.80
2018-12-30T13:14:40.605Z,6.77
2018-12-30T13:17:11.137Z,6.73
2018-12-30T13:19:41.658Z,6.72
2018-12-30T13:22:12.181Z,6.72
2018-12-30T13:24:42.724Z,6.77
2018-12-30T13:27:13.326Z,6.74
2018-12-30T13:29:43.833Z,6.75
2018-12-30T13:32:14.428Z,6.75
2018-12-30T13:34:44.963Z,6.70
2018-12-30T13:37:15.536Z,6.67
2018-12-30T13:39:46.094Z,6.70
2018-12-30T13:42:16.577Z,6.70
2018-12-30T13:44:47.206Z,6.67
2018-12-30T13:47:20.111Z,6.64
2018-12-30T13:49:51.907Z,6.65
2018-12-30T13:52:23.111Z,6.71
2018-12-30T13:54:53.637Z,6.73
2018-12-30T13:57:24.260Z,6.76
2018-12-30T13:59:54.835Z,6.78
2018-12-30T14:02:25.348Z,6.82
2018-12-30T14:04:55.881Z,6.81
2018-12-30T14:07:26.440Z,6.84
2018-12-30T14:09:56.996Z,6.87
2018-12-30T14:12:27.561Z,6.85
2018-12-30T14:14:58.151Z,6.89
2018-12-30T14:17:31.452Z,6.82
2018-12-30T14:20:01.977Z,6.83
2018-12-30T14:22:35.170Z,6.85
2018-12-30T14:25:06.291Z,6.80
2018-12-30T14:27:36.840Z,6.81
2018-12-30T14:30:08.804Z,6.78
2018-12-30T14:32:39.346Z,6.80
2018-12-30T14:35:15.926Z,6.81
2018-12-30T14:37:42.168Z,6.82
2018-12-30T14:40:12.721Z,6.81
2018-12-30T14:42:43.231Z,6.85
2018-12-30T14:45:13.809Z,6.84
2018-12-30T14:47:44.367Z,6.88
2018-12-30T14:50:14.945Z,6.86
2018-12-30T14:52:45.530Z,6.85
2018-12-30T14:55:18.885Z,6.84
2018-12-30T14:57:51.925Z,6.85
2018-12-30T15:00:22.655Z,6.84
2018-12-30T15:02:53.167Z,6.82
2018-12-30T15:05:23.759Z,6.78
2018-12-30T15:07:54.329Z,6.80
2018-12-30T15:10:24.895Z,6.82
2018-12-30T15:12:55.402Z,6.81
2018-12-30T15:15:25.947Z,6.81
2018-12-30T15:17:56.531Z,6.78
2018-12-30T15:20:27.083Z,6.76
2018-12-30T15:22:57.680Z,6.76
2018-12-30T15:25:28.187Z,6.76
2018-12-30T15:27:58.715Z,6.79
2018-12-30T15:30:29.247Z,6.79
2018-12-30T15:32:59.803Z,6.79
2018-12-30T15:35:31.599Z,6.78
2018-12-30T15:38:02.098Z,6.72
2018-12-30T15:40:32.703Z,6.75
2018-12-30T15:43:03.396Z,6.74
2018-12-30T15:45:33.946Z,6.73
2018-12-30T15:48:04.530Z,6.77
2018-12-30T15:50:35.059Z,6.75
2018-12-30T15:53:05.612Z,6.72
2018-12-30T15:55:36.254Z,6.73
2018-12-30T15:58:06.820Z,6.69
2018-12-30T16:00:37.347Z,6.70
2018-12-30T16:03:07.887Z,6.69
2018-12-30T16:05:38.419Z,6.67
2018-12-30T16:08:08.967Z,6.65
2018-12-30T16:10:39.543Z,6.67
2018-12-30T16:13:11.467Z,6.68
2018-12-30T16:15:41.972Z,6.68
2018-12-30T16:18:14.950Z,6.67
2018-12-30T16:20:45.471Z,6.67
2018-12-30T16:23:16.050Z,6.61
2018-12-30T16:25:48.947Z,6.63
2018-12-30T16:28:19.490Z,6.59
2018-12-30T16:30:50.021Z,6.58
2018-12-30T16:33:20.594Z,6.55
2018-12-30T16:35:51.948Z,6.58
2018-12-30T16:38:22.472Z,6.55
2018-12-30T16:40:53.004Z,6.53
2018-12-30T16:43:23.566Z,6.57
2018-12-30T16:45:54.141Z,6.55
2018-12-30T16:48:25.925Z,6.56
2018-12-30T16:50:56.479Z,6.59
2018-12-30T16:53:27.076Z,6.64
2018-12-30T16:55:57.669Z,6.65
2018-12-30T16:58:28.307Z,6.64
2018-12-30T17:00:58.843Z,6.63
2018-12-30T17:03:29.505Z,6.62
2018-12-30T17:06:00.081Z,6.61
2018-12-30T17:08:30.686Z,6.57
2018-12-30T17:11:01.352Z,6.58
2018-12-30T17:13:33.576Z,6.57
2018-12-30T17:16:07.005Z,6.59
2018-12-30T17:18:37.603Z,6.59
2018-12-30T17:21:08.203Z,6.58
2018-12-30T17:23:38.805Z,6.58
2018-12-30T17:26:09.315Z,6.57
2018-12-30T17:28:39.913Z,6.56
2018-12-30T17:31:10.445Z,6.55
2018-12-30T17:33:41.040Z,6.57
2018-12-30T17:36:14.630Z,6.58
2018-12-30T17:38:45.228Z,6.56
2018-12-30T17:41:15.737Z,6.55
2018-12-30T17:43:46.266Z,6.56
2018-12-30T17:46:18.282Z,6.56
2018-12-30T17:48:49.210Z,6.54
2018-12-30T17:51:19.800Z,6.54
2018-12-30T17:53:50.336Z,6.52
2018-12-30T17:56:20.853Z,6.53
2018-12-30T17:58:53.102Z,6.51
2018-12-30T18:01:23.659Z,6.51
2018-12-30T18:03:54.168Z,6.51
2018-12-30T18:06:24.769Z,6.50
2018-12-30T18:08:55.331Z,6.50
2018-12-30T18:11:25.918Z,6.49
2018-12-30T18:13:56.408Z,6.48
2018-12-30T18:16:26.943Z,6.46
2018-12-30T18:18:57.565Z,6.44
2018-12-30T18:21:30.220Z,6.46
2018-12-30T18:24:00.825Z,6.45
2018-12-30T18:26:37.770Z,6.44
2018-12-30T18:29:03.735Z,6.46
2018-12-30T18:31:34.262Z,6.48
2018-12-30T18:34:04.831Z,6.48
2018-12-30T18:36:35.402Z,6.47
2018-12-30T18:39:08.011Z,6.50
2018-12-30T18:41:41.209Z,6.52
2018-12-30T18:44:13.441Z,6.50
2018-12-30T18:46:44.029Z,6.52
2018-12-30T18:49:14.612Z,6.49
2018-12-30T18:51:45.095Z,6.49
2018-12-30T18:54:15.735Z,6.49
2018-12-30T18:56:47.535Z,6.45
2018-12-30T18:59:18.150Z,6.46
2018-12-30T19:01:48.697Z,6.45
2018-12-30T19:04:22.007Z,6.48
2018-12-30T19:06:52.580Z,6.47
2018-12-30T19:09:23.156Z,6.48
2018-12-30T19:11:53.710Z,6.48
2018-12-30T19:14:24.257Z,6.49
2018-12-30T19:16:57.786Z,6.49
2018-12-30T19:19:28.358Z,6.44
2018-12-30T19:21:58.918Z,6.43
2018-12-30T19:24:29.441Z,6.46
2018-12-30T19:26:59.987Z,6.45
2018-12-30T19:29:30.514Z,6.48
2018-12-30T19:32:01.076Z,6.46
2018-12-30T19:34:31.618Z,6.45
2018-12-30T19:37:02.211Z,6.41
2018-12-30T19:39:32.770Z,6.37
2018-12-30T19:42:03.304Z,6.34
2018-12-30T19:44:33.865Z,6.30
2018-12-30T19:47:04.433Z,6.26
2018-12-30T19:49:35.085Z,6.22
2018-12-30T19:52:05.591Z,6.23
2018-12-30T19:54:36.158Z,6.22
2018-12-30T19:57:06.725Z,6.24
2018-12-30T19:59:37.356Z,6.18
2018-12-30T20:02:07.913Z,6.14
2018-12-30T20:04:40.766Z,6.14
2018-12-30T20:07:10.782Z,6.17
2018-12-30T20:09:41.342Z,6.15
2018-12-30T20:12:12.939Z,6.10
2018-12-30T20:14:43.612Z,6.11
2018-12-30T20:17:14.142Z,6.14
2018-12-30T20:19:44.744Z,6.17
2018-12-30T20:22:15.309Z,6.21
2018-12-30T20:24:45.854Z,6.19
2018-12-30T20:27:16.892Z,6.23
2018-12-30T20:29:47.477Z,6.23
2018-12-30T20:32:18.047Z,6.21
2018-12-30T20:34:50.236Z,6.25
2018-12-30T20:37:20.714Z,6.22
2018-12-30T20:39:51.284Z,6.25
2018-12-30T20:42:21.828Z,6.27
2018-12-30T20:44:52.461Z,6.30
2018-12-30T20:47:25.344Z,6.31
2018-12-30T20:49:55.873Z,6.33
2018-12-30T20:52:26.371Z,6.33
2018-12-30T20:54:56.956Z,6.33
2018-12-30T20:57:27.568Z,6.34
2018-12-30T20:59:59.406Z,6.33
2018-12-30T21:02:29.975Z,6.34
2018-12-30T21:05:00.543Z,6.34
2018-12-30T21:07:31.168Z,6.34
2018-12-30T21:10:01.742Z,6.34
2018-12-30T21:12:32.301Z,6.35
2018-12-30T21:15:02.813Z,6.34
2018-12-30T21:17:33.359Z,6.33
2018-12-30T21:20:03.878Z,6.35
2018-12-30T21:22:34.439Z,6.37
2018-12-30T21:25:05.334Z,6.34
2018-12-30T21:27:35.854Z,6.38
2018-12-30T21:30:09.079Z,6.35
2018-12-30T21:32:39.683Z,6.36
2018-12-30T21:35:10.189Z,6.37
2018-12-30T21:37:40.830Z,6.36
2018-12-30T21:40:11.349Z,6.36
2018-12-30T21:42:45.095Z,6.37
2018-12-30T21:45:15.617Z,6.36
2018-12-30T21:47:46.236Z,6.38
2018-12-30T21:50:16.834Z,6.37
2018-12-30T21:52:47.442Z,6.37
2018-12-30T21:55:17.983Z,6.39
2018-12-30T21:57:48.458Z,6.38
2018-12-30T22:00:21.359Z,6.39
2018-12-30T22:02:51.965Z,6.36
2018-12-30T22:05:22.460Z,6.39
2018-12-30T22:07:53.024Z,6.38
2018-12-30T22:10:23.692Z,6.40
2018-12-30T22:12:54.218Z,6.41
2018-12-30T22:15:24.771Z,6.38
2018-12-30T22:17:55.324Z,6.38
2018-12-30T22:20:28.824Z,6.40
2018-12-30T22:22:59.405Z,6.39
2018-12-30T22:25:30.049Z,6.39
2018-12-30T22:28:00.591Z,6.38
2018-12-30T22:30:31.189Z,6.40
2018-12-30T22:33:01.724Z,6.41
2018-12-30T22:35:32.270Z,6.39
2018-12-30T22:38:02.850Z,6.37
2018-12-30T22:40:33.378Z,6.38
2018-12-30T22:43:03.929Z,6.35
2018-12-30T22:45:36.816Z,6.36
2018-12-30T22:48:07.351Z,6.38
2018-12-30T22:50:37.931Z,6.37
2018-12-30T22:53:08.483Z,6.36
2018-12-30T22:55:39.054Z,6.36
2018-12-30T22:58:09.642Z,6.33
2018-12-30T23:00:57.893Z,6.34
2018-12-30T23:03:29.560Z,6.34
2018-12-30T23:06:00.071Z,6.33
2018-12-30T23:08:30.644Z,6.32
2018-12-30T23:11:01.222Z,6.34
2018-12-30T23:13:34.331Z,6.34
2018-12-30T23:16:10.035Z,6.36
2018-12-30T23:18:40.558Z,6.38
2018-12-30T23:21:11.139Z,6.39
2018-12-30T23:23:41.772Z,6.42
2018-12-30T23:26:12.290Z,6.39
2018-12-30T23:28:42.882Z,6.42
2018-12-30T23:31:13.402Z,6.41
2018-12-30T23:33:43.999Z,6.41
2018-12-30T23:36:14.496Z,6.43
2018-12-30T23:38:45.042Z,6.44
2018-12-30T23:41:15.567Z,6.45
2018-12-30T23:43:46.116Z,6.44
2018-12-30T23:46:19.968Z,6.44
2018-12-30T23:48:50.473Z,6.44
2018-12-30T23:51:21.029Z,6.45
2018-12-30T23:53:53.621Z,6.42
2018-12-30T23:56:24.187Z,6.43
2018-12-30T23:58:54.732Z,6.46
